createdAt,value
2018-03-04T00:00:41.740Z,984.8
2018-03-04T00:01:43.119Z,984.8
2018-03-04T00:02:44.500Z,984.8
2018-03-04T00:03:45.885Z,984.8
2018-03-04T00:04:47.268Z,984.8
2018-03-04T00:05:48.649Z,984.8
2018-03-04T00:06:50.053Z,984.8
2018-03-04T00:07:51.435Z,984.8
2018-03-04T00:08:52.815Z,984.8
2018-03-04T00:09:54.199Z,984.8
2018-03-04T00:10:55.587Z,984.8
2018-03-04T00:11:56.966Z,984.8
2018-03-04T00:12:58.346Z,984.8
2018-03-04T00:13:59.729Z,984.8
2018-03-04T00:15:01.347Z,984.8
2018-03-04T00:16:02.716Z,984.8
2018-03-04T00:17:04.097Z,984.7
2018-03-04T00:18:05.481Z,984.8
2018-03-04T00:19:06.856Z,984.7
2018-03-04T00:20:08.238Z,984.8
2018-03-04T00:21:09.628Z,984.8
2018-03-04T00:22:11.010Z,984.8
2018-03-04T00:23:12.390Z,984.8
2018-03-04T00:24:13.770Z,984.9
2018-03-04T00:25:15.149Z,984.9
2018-03-04T00:26:16.533Z,984.9
2018-03-04T00:27:18.004Z,984.9
2018-03-04T00:28:19.464Z,984.9
2018-03-04T00:29:20.843Z,984.9
2018-03-04T00:30:22.226Z,984.9
2018-03-04T00:31:23.607Z,984.8
2018-03-04T00:32:24.988Z,984.8
2018-03-04T00:33:26.369Z,984.9
2018-03-04T00:34:27.751Z,984.9
2018-03-04T00:35:29.133Z,984.9
2018-03-04T00:36:30.516Z,984.9
2018-03-04T00:37:31.900Z,984.9
2018-03-04T00:38:33.279Z,984.9
2018-03-04T00:39:34.663Z,984.8
2018-03-04T00:40:36.051Z,984.8
2018-03-04T00:41:37.431Z,984.9
2018-03-04T00:42:38.816Z,984.9
2018-03-04T00:43:40.198Z,984.9
2018-03-04T00:44:41.577Z,984.8
2018-03-04T00:45:42.960Z,984.8
2018-03-04T00:46:44.344Z,984.8
2018-03-04T00:47:45.721Z,984.9
2018-03-04T00:48:47.103Z,984.8
2018-03-04T00:49:48.487Z,984.9
2018-03-04T00:50:49.867Z,984.9
2018-03-04T00:51:51.247Z,984.9
2018-03-04T00:52:52.628Z,984.9
2018-03-04T00:53:54.012Z,984.9
2018-03-04T00:54:55.395Z,984.9
2018-03-04T00:55:56.776Z,984.8
2018-03-04T00:56:58.157Z,984.8
2018-03-04T00:57:59.539Z,984.8
2018-03-04T00:59:00.919Z,984.8
2018-03-04T01:00:02.298Z,984.8
2018-03-04T01:01:03.686Z,984.7
2018-03-04T01:02:05.071Z,984.8
2018-03-04T01:03:06.452Z,984.7
2018-03-04T01:04:07.832Z,984.7
2018-03-04T01:05:09.210Z,984.7
2018-03-04T01:06:10.589Z,984.7
2018-03-04T01:07:11.968Z,984.7
2018-03-04T01:08:13.352Z,984.8
2018-03-04T01:09:14.737Z,984.8
2018-03-04T01:10:16.116Z,984.7
2018-03-04T01:11:17.501Z,984.7
2018-03-04T01:12:18.884Z,984.8
2018-03-04T01:13:20.267Z,984.8
2018-03-04T01:14:21.648Z,984.7
2018-03-04T01:15:23.027Z,984.8
2018-03-04T01:16:24.411Z,984.8
2018-03-04T01:17:25.795Z,984.8
2018-03-04T01:18:27.178Z,984.8
2018-03-04T01:19:28.611Z,984.6
2018-03-04T01:20:30.086Z,984.7
2018-03-04T01:21:31.467Z,984.7
2018-03-04T01:22:32.847Z,984.7
2018-03-04T01:23:34.230Z,984.7
2018-03-04T01:24:35.616Z,984.7
2018-03-04T01:25:37.000Z,984.7
2018-03-04T01:26:38.392Z,984.7
2018-03-04T01:27:39.774Z,984.7
2018-03-04T01:28:41.154Z,984.7
2018-03-04T01:29:42.536Z,984.6
2018-03-04T01:30:43.918Z,984.7
2018-03-04T01:31:45.302Z,984.6
2018-03-04T01:32:46.683Z,984.6
2018-03-04T01:33:48.064Z,984.6
2018-03-04T01:34:49.442Z,984.6
2018-03-04T01:35:50.825Z,984.5
2018-03-04T01:36:52.210Z,984.6
2018-03-04T01:37:53.591Z,984.6
2018-03-04T01:38:54.973Z,984.6
2018-03-04T01:39:56.356Z,984.6
2018-03-04T01:40:57.735Z,984.6
2018-03-04T01:41:59.117Z,984.6
2018-03-04T01:43:00.498Z,984.6
2018-03-04T01:44:01.881Z,984.6
2018-03-04T01:45:03.264Z,984.6
2018-03-04T01:46:04.656Z,984.6
2018-03-04T01:47:06.041Z,984.6
2018-03-04T01:48:07.421Z,984.6
2018-03-04T01:49:08.801Z,984.6
2018-03-04T01:50:10.194Z,984.6
2018-03-04T01:51:11.599Z,984.5
2018-03-04T01:52:12.982Z,984.6
2018-03-04T01:53:14.367Z,984.6
2018-03-04T01:54:15.747Z,984.5
2018-03-04T01:55:17.128Z,984.5
2018-03-04T01:56:18.514Z,984.5
2018-03-04T01:57:19.917Z,984.5
2018-03-04T01:58:21.296Z,984.5
2018-03-04T01:59:22.673Z,984.5
2018-03-04T02:00:24.054Z,984.4
2018-03-04T02:01:25.440Z,984.4
2018-03-04T02:02:26.831Z,984.5
2018-03-04T02:03:28.216Z,984.5
2018-03-04T02:04:29.602Z,984.5
2018-03-04T02:05:30.980Z,984.5
2018-03-04T02:06:32.363Z,984.6
2018-03-04T02:07:33.743Z,984.5
2018-03-04T02:08:35.130Z,984.5
2018-03-04T02:09:36.507Z,984.6
2018-03-04T02:10:37.890Z,984.5
2018-03-04T02:11:39.318Z,984.5
2018-03-04T02:12:40.726Z,984.5
2018-03-04T02:13:42.110Z,984.5
2018-03-04T02:14:43.494Z,984.5
2018-03-04T02:15:44.875Z,984.5
2018-03-04T02:16:46.256Z,984.5
2018-03-04T02:17:47.636Z,984.5
2018-03-04T02:18:49.014Z,984.5
2018-03-04T02:19:50.397Z,984.5
2018-03-04T02:20:51.777Z,984.5
2018-03-04T02:21:53.160Z,984.5
2018-03-04T02:22:54.554Z,984.5
2018-03-04T02:23:55.932Z,984.4
2018-03-04T02:24:57.314Z,984.4
2018-03-04T02:25:58.696Z,984.4
2018-03-04T02:27:00.079Z,984.3
2018-03-04T02:28:01.463Z,984.4
2018-03-04T02:29:02.846Z,984.3
2018-03-04T02:30:04.244Z,984.4
2018-03-04T02:31:05.622Z,984.3
2018-03-04T02:32:06.997Z,984.3
2018-03-04T02:33:08.379Z,984.3
2018-03-04T02:34:09.759Z,984.4
2018-03-04T02:35:11.144Z,984.4
2018-03-04T02:36:12.528Z,984.4
2018-03-04T02:37:13.917Z,984.3
2018-03-04T02:38:15.295Z,984.4
2018-03-04T02:39:16.672Z,984.4
2018-03-04T02:40:18.056Z,984.4
2018-03-04T02:41:19.440Z,984.4
2018-03-04T02:42:20.824Z,984.4
2018-03-04T02:43:22.205Z,984.3
2018-03-04T02:44:23.587Z,984.3
2018-03-04T02:45:24.975Z,984.3
2018-03-04T02:46:26.346Z,984.3
2018-03-04T02:47:27.729Z,984.4
2018-03-04T02:48:29.108Z,984.3
2018-03-04T02:49:30.488Z,984.3
2018-03-04T02:50:31.870Z,984.2
2018-03-04T02:51:33.252Z,984.2
2018-03-04T02:52:34.644Z,984.2
2018-03-04T02:53:36.031Z,984.2
2018-03-04T02:54:37.414Z,984.2
2018-03-04T02:55:38.789Z,984.2
2018-03-04T02:56:40.168Z,984.2
2018-03-04T02:57:41.552Z,984.2
2018-03-04T02:58:42.935Z,984.1
2018-03-04T02:59:44.317Z,984.1
2018-03-04T03:00:45.700Z,984.2
2018-03-04T03:01:47.079Z,984.2
2018-03-04T03:02:48.460Z,984.2
2018-03-04T03:03:49.955Z,984.1
2018-03-04T03:04:51.359Z,984.1
2018-03-04T03:05:52.747Z,984.1
2018-03-04T03:06:54.132Z,984.1
2018-03-04T03:07:55.520Z,984.1
2018-03-04T03:08:56.896Z,984.1
2018-03-04T03:09:58.277Z,984.0
2018-03-04T03:10:59.660Z,984.1
2018-03-04T03:12:01.039Z,984.0
2018-03-04T03:13:02.428Z,984.1
2018-03-04T03:14:03.808Z,984.1
2018-03-04T03:15:05.191Z,984.1
2018-03-04T03:16:06.571Z,984.1
2018-03-04T03:17:07.955Z,984.1
2018-03-04T03:18:09.337Z,984.1
2018-03-04T03:19:10.720Z,984.1
2018-03-04T03:20:12.104Z,984.1
2018-03-04T03:21:13.485Z,984.1
2018-03-04T03:22:14.866Z,984.1
2018-03-04T03:23:16.253Z,984.1
2018-03-04T03:24:17.635Z,984.1
2018-03-04T03:25:19.022Z,984.1
2018-03-04T03:26:20.404Z,984.1
2018-03-04T03:27:21.792Z,984.1
2018-03-04T03:28:23.171Z,984.0
2018-03-04T03:29:24.549Z,984.0
2018-03-04T03:30:25.932Z,984.0
2018-03-04T03:31:27.313Z,984.1
2018-03-04T03:32:28.696Z,984.0
2018-03-04T03:33:30.078Z,983.9
2018-03-04T03:34:31.459Z,983.9
2018-03-04T03:35:32.836Z,983.9
2018-03-04T03:36:34.218Z,984.0
2018-03-04T03:37:35.604Z,983.9
2018-03-04T03:38:36.983Z,983.9
2018-03-04T03:39:38.363Z,983.9
2018-03-04T03:40:39.747Z,983.9
2018-03-04T03:41:41.133Z,983.9
2018-03-04T03:42:42.513Z,983.9
2018-03-04T03:43:43.892Z,983.9
2018-03-04T03:44:45.271Z,983.9
2018-03-04T03:45:46.645Z,983.9
2018-03-04T03:46:48.041Z,983.9
2018-03-04T03:47:49.430Z,983.9
2018-03-04T03:48:50.812Z,983.8
2018-03-04T03:49:52.193Z,983.8
2018-03-04T03:50:53.573Z,983.9
2018-03-04T03:51:54.957Z,983.8
2018-03-04T03:52:56.331Z,983.9
2018-03-04T03:53:57.720Z,983.8
2018-03-04T03:54:59.094Z,983.8
2018-03-04T03:56:00.578Z,983.8
2018-03-04T03:57:01.972Z,983.9
2018-03-04T03:58:03.357Z,983.8
2018-03-04T03:59:04.750Z,983.8
2018-03-04T04:00:06.134Z,983.7
2018-03-04T04:01:07.515Z,983.8
2018-03-04T04:02:08.894Z,983.9
2018-03-04T04:03:10.279Z,983.9
2018-03-04T04:04:11.660Z,984.0
2018-03-04T04:05:13.040Z,984.0
2018-03-04T04:06:14.420Z,984.0
2018-03-04T04:07:15.806Z,984.0
2018-03-04T04:08:17.191Z,984.0
2018-03-04T04:09:18.572Z,984.0
2018-03-04T04:10:19.957Z,983.9
2018-03-04T04:11:21.336Z,983.9
2018-03-04T04:12:22.715Z,984.0
2018-03-04T04:13:24.101Z,983.9
2018-03-04T04:14:25.489Z,983.9
2018-03-04T04:15:26.864Z,984.0
2018-03-04T04:16:28.248Z,984.0
2018-03-04T04:17:29.629Z,983.9
2018-03-04T04:18:31.014Z,984.0
2018-03-04T04:19:32.392Z,984.0
2018-03-04T04:20:33.775Z,984.0
2018-03-04T04:21:35.160Z,984.1
2018-03-04T04:22:36.538Z,984.0
2018-03-04T04:23:37.922Z,984.1
2018-03-04T04:24:39.305Z,984.0
2018-03-04T04:25:40.687Z,984.0
2018-03-04T04:26:42.064Z,984.0
2018-03-04T04:27:43.447Z,984.0
2018-03-04T04:28:44.836Z,984.1
2018-03-04T04:29:46.210Z,984.0
2018-03-04T04:30:47.594Z,984.0
2018-03-04T04:31:48.989Z,984.0
2018-03-04T04:32:50.359Z,984.0
2018-03-04T04:33:51.740Z,984.0
2018-03-04T04:34:53.123Z,984.0
2018-03-04T04:35:54.526Z,983.9
2018-03-04T04:36:55.909Z,983.9
2018-03-04T04:37:57.288Z,983.9
2018-03-04T04:38:58.671Z,983.9
2018-03-04T04:40:00.054Z,983.9
2018-03-04T04:41:01.436Z,983.9
2018-03-04T04:42:02.818Z,983.9
2018-03-04T04:43:04.200Z,983.9
2018-03-04T04:44:05.586Z,983.9
2018-03-04T04:45:06.966Z,983.9
2018-03-04T04:46:08.349Z,983.9
2018-03-04T04:47:09.841Z,983.9
2018-03-04T04:48:11.164Z,983.8
2018-03-04T04:49:12.562Z,983.8
2018-03-04T04:50:13.942Z,983.8
2018-03-04T04:51:15.325Z,983.8
2018-03-04T04:52:16.706Z,983.8
2018-03-04T04:53:18.093Z,983.7
2018-03-04T04:54:19.485Z,983.8
2018-03-04T04:55:20.859Z,983.8
2018-03-04T04:56:22.239Z,983.7
2018-03-04T04:57:23.621Z,983.7
2018-03-04T04:58:25.004Z,983.7
2018-03-04T04:59:26.387Z,983.7
2018-03-04T05:00:27.770Z,983.7
2018-03-04T05:01:29.147Z,983.7
2018-03-04T05:02:30.531Z,983.7
2018-03-04T05:03:31.913Z,983.7
2018-03-04T05:04:33.293Z,983.8
2018-03-04T05:05:34.677Z,983.7
2018-03-04T05:06:36.058Z,983.8
2018-03-04T05:07:37.441Z,983.7
2018-03-04T05:08:38.818Z,983.7
2018-03-04T05:09:40.201Z,983.7
2018-03-04T05:10:41.581Z,983.8
2018-03-04T05:11:42.963Z,983.8
2018-03-04T05:12:44.347Z,983.8
2018-03-04T05:13:45.729Z,983.8
2018-03-04T05:14:47.115Z,983.8
2018-03-04T05:15:48.498Z,983.9
2018-03-04T05:16:49.882Z,983.8
2018-03-04T05:17:51.261Z,983.8
2018-03-04T05:18:52.645Z,983.9
2018-03-04T05:19:54.027Z,983.9
2018-03-04T05:20:55.410Z,983.9
2018-03-04T05:21:56.791Z,983.9
2018-03-04T05:22:58.169Z,983.9
2018-03-04T05:23:59.548Z,983.9
2018-03-04T05:25:00.927Z,984.0
2018-03-04T05:26:02.309Z,984.0
2018-03-04T05:27:03.691Z,984.0
2018-03-04T05:28:05.071Z,983.9
2018-03-04T05:29:06.455Z,983.9
2018-03-04T05:30:07.836Z,983.9
2018-03-04T05:31:09.229Z,983.9
2018-03-04T05:32:10.602Z,983.9
2018-03-04T05:33:11.979Z,983.9
2018-03-04T05:34:13.363Z,983.8
2018-03-04T05:35:14.744Z,983.9
2018-03-04T05:36:16.129Z,983.9
2018-03-04T05:37:17.515Z,983.9
2018-03-04T05:38:18.900Z,983.8
2018-03-04T05:39:20.291Z,983.8
2018-03-04T05:40:21.770Z,983.8
2018-03-04T05:41:23.168Z,983.9
2018-03-04T05:42:24.551Z,983.8
2018-03-04T05:43:25.932Z,983.8
2018-03-04T05:44:27.313Z,983.8
2018-03-04T05:45:28.692Z,983.8
2018-03-04T05:46:30.074Z,983.8
2018-03-04T05:47:31.452Z,983.7
2018-03-04T05:48:32.837Z,983.7
2018-03-04T05:49:34.217Z,983.7
2018-03-04T05:50:35.600Z,983.7
2018-03-04T05:51:36.979Z,983.8
2018-03-04T05:52:38.359Z,983.8
2018-03-04T05:53:39.738Z,983.8
2018-03-04T05:54:41.120Z,983.8
2018-03-04T05:55:42.508Z,983.8
2018-03-04T05:56:43.921Z,983.8
2018-03-04T05:57:45.309Z,983.8
2018-03-04T05:58:46.691Z,983.8
2018-03-04T05:59:48.067Z,983.8
2018-03-04T06:00:49.463Z,983.8
2018-03-04T06:01:50.842Z,983.9
2018-03-04T06:02:52.230Z,983.9
2018-03-04T06:03:53.619Z,983.9
2018-03-04T06:04:55.001Z,983.9
2018-03-04T06:05:56.383Z,983.9
2018-03-04T06:06:57.762Z,983.9
2018-03-04T06:07:59.148Z,983.9
2018-03-04T06:09:00.527Z,983.9
2018-03-04T06:10:01.914Z,983.9
2018-03-04T06:11:03.296Z,983.9
2018-03-04T06:12:04.678Z,983.9
2018-03-04T06:13:06.063Z,983.9
2018-03-04T06:14:07.442Z,983.8
2018-03-04T06:15:08.821Z,983.9
2018-03-04T06:16:10.204Z,983.9
2018-03-04T06:17:11.588Z,983.9
2018-03-04T06:18:12.979Z,983.9
2018-03-04T06:19:14.364Z,984.0
2018-03-04T06:20:15.745Z,984.0
2018-03-04T06:21:17.126Z,983.9
2018-03-04T06:22:18.509Z,984.0
2018-03-04T06:23:19.892Z,983.9
2018-03-04T06:24:21.280Z,983.9
2018-03-04T06:25:22.662Z,984.0
2018-03-04T06:26:24.049Z,983.9
2018-03-04T06:27:25.423Z,984.0
2018-03-04T06:28:26.804Z,984.0
2018-03-04T06:29:28.195Z,984.0
2018-03-04T06:30:29.589Z,984.0
2018-03-04T06:31:31.024Z,984.0
2018-03-04T06:32:32.497Z,984.0
2018-03-04T06:33:33.883Z,984.0
2018-03-04T06:34:35.272Z,983.9
2018-03-04T06:35:36.655Z,983.9
2018-03-04T06:36:38.041Z,983.9
2018-03-04T06:37:39.426Z,983.9
2018-03-04T06:38:40.812Z,984.0
2018-03-04T06:39:42.195Z,984.0
2018-03-04T06:40:43.581Z,983.9
2018-03-04T06:41:44.969Z,984.0
2018-03-04T06:42:46.351Z,983.9
2018-03-04T06:43:47.735Z,983.9
2018-03-04T06:44:49.121Z,983.9
2018-03-04T06:45:50.513Z,983.9
2018-03-04T06:46:51.897Z,983.9
2018-03-04T06:47:53.281Z,983.9
2018-03-04T06:48:54.664Z,983.9
2018-03-04T06:49:56.051Z,983.9
2018-03-04T06:50:57.436Z,983.9
2018-03-04T06:51:58.820Z,983.9
2018-03-04T06:53:00.207Z,984.0
2018-03-04T06:54:01.596Z,984.0
2018-03-04T06:55:02.985Z,984.0
2018-03-04T06:56:04.367Z,983.9
2018-03-04T06:57:05.753Z,983.9
2018-03-04T06:58:07.135Z,983.9
2018-03-04T06:59:08.520Z,983.9
2018-03-04T07:00:09.906Z,983.9
2018-03-04T07:01:11.293Z,983.9
2018-03-04T07:02:12.687Z,983.9
2018-03-04T07:03:14.072Z,983.9
2018-03-04T07:04:15.457Z,984.0
2018-03-04T07:05:16.842Z,984.0
2018-03-04T07:06:18.235Z,984.0
2018-03-04T07:07:19.613Z,984.0
2018-03-04T07:08:20.997Z,984.0
2018-03-04T07:09:22.386Z,984.0
2018-03-04T07:10:23.768Z,984.0
2018-03-04T07:11:25.152Z,984.0
2018-03-04T07:12:26.537Z,984.0
2018-03-04T07:13:27.933Z,984.0
2018-03-04T07:14:29.317Z,984.0
2018-03-04T07:15:30.704Z,984.0
2018-03-04T07:16:32.089Z,984.1
2018-03-04T07:17:33.473Z,984.0
2018-03-04T07:18:34.857Z,984.0
2018-03-04T07:19:36.239Z,984.1
2018-03-04T07:20:37.637Z,984.1
2018-03-04T07:21:39.025Z,984.0
2018-03-04T07:22:40.408Z,984.1
2018-03-04T07:23:41.819Z,984.0
2018-03-04T07:24:43.257Z,984.0
2018-03-04T07:25:44.642Z,984.0
2018-03-04T07:26:46.028Z,984.0
2018-03-04T07:27:47.414Z,984.0
2018-03-04T07:28:48.802Z,984.1
2018-03-04T07:29:50.188Z,984.1
2018-03-04T07:30:51.576Z,984.1
2018-03-04T07:31:52.962Z,984.1
2018-03-04T07:32:54.350Z,984.1
2018-03-04T07:33:55.735Z,984.1
2018-03-04T07:34:57.120Z,984.1
2018-03-04T07:35:58.509Z,984.1
2018-03-04T07:36:59.895Z,984.2
2018-03-04T07:38:01.285Z,984.1
2018-03-04T07:39:02.666Z,984.1
2018-03-04T07:40:04.112Z,984.1
2018-03-04T07:41:05.501Z,984.2
2018-03-04T07:42:06.890Z,984.2
2018-03-04T07:43:08.276Z,984.2
2018-03-04T07:44:09.661Z,984.2
2018-03-04T07:45:11.050Z,984.2
2018-03-04T07:46:12.435Z,984.2
2018-03-04T07:47:13.837Z,984.2
2018-03-04T07:48:15.211Z,984.2
2018-03-04T07:49:16.592Z,984.2
2018-03-04T07:50:17.989Z,984.3
2018-03-04T07:51:19.374Z,984.3
2018-03-04T07:52:20.759Z,984.2
2018-03-04T07:53:22.144Z,984.2
2018-03-04T07:54:23.527Z,984.2
2018-03-04T07:55:24.915Z,984.1
2018-03-04T07:56:26.300Z,984.1
2018-03-04T07:57:27.694Z,984.1
2018-03-04T07:58:29.084Z,984.0
2018-03-04T07:59:30.476Z,984.1
2018-03-04T08:00:31.933Z,984.1
2018-03-04T08:01:33.319Z,984.1
2018-03-04T08:02:34.705Z,984.1
2018-03-04T08:03:36.092Z,984.1
2018-03-04T08:04:37.479Z,984.0
2018-03-04T08:05:38.872Z,984.1
2018-03-04T08:06:40.260Z,984.1
2018-03-04T08:07:41.645Z,984.1
2018-03-04T08:08:43.030Z,984.2
2018-03-04T08:09:44.420Z,984.2
2018-03-04T08:10:45.808Z,984.2
2018-03-04T08:11:47.194Z,984.1
2018-03-04T08:12:48.584Z,984.2
2018-03-04T08:13:49.978Z,984.2
2018-03-04T08:14:51.414Z,984.1
2018-03-04T08:15:52.953Z,984.1
2018-03-04T08:16:54.413Z,984.1
2018-03-04T08:17:55.850Z,984.1
2018-03-04T08:18:57.237Z,984.1
2018-03-04T08:19:58.633Z,984.1
2018-03-04T08:21:00.020Z,984.1
2018-03-04T08:22:01.404Z,984.1
2018-03-04T08:23:02.794Z,984.0
2018-03-04T08:24:04.180Z,984.0
2018-03-04T08:25:05.570Z,984.0
2018-03-04T08:26:06.979Z,984.0
2018-03-04T08:27:08.389Z,984.0
2018-03-04T08:28:09.776Z,984.1
2018-03-04T08:29:11.192Z,984.1
2018-03-04T08:30:12.576Z,984.1
2018-03-04T08:31:13.968Z,984.2
2018-03-04T08:32:15.352Z,984.1
2018-03-04T08:33:16.741Z,984.1
2018-03-04T08:34:18.154Z,984.1
2018-03-04T08:35:19.546Z,984.1
2018-03-04T08:36:20.932Z,984.1
2018-03-04T08:37:22.318Z,984.1
2018-03-04T08:38:23.725Z,984.1
2018-03-04T08:39:25.134Z,984.1
2018-03-04T08:40:26.521Z,984.0
2018-03-04T08:41:27.924Z,984.1
2018-03-04T08:42:29.316Z,984.1
2018-03-04T08:43:30.728Z,984.0
2018-03-04T08:44:32.119Z,984.0
2018-03-04T08:45:33.554Z,984.1
2018-03-04T08:46:34.912Z,984.1
2018-03-04T08:47:36.303Z,984.1
2018-03-04T08:48:37.699Z,984.1
2018-03-04T08:49:39.242Z,984.0
2018-03-04T08:50:40.645Z,984.0
2018-03-04T08:51:42.031Z,984.0
2018-03-04T08:52:43.421Z,984.1
2018-03-04T08:53:44.810Z,984.0
2018-03-04T08:54:46.204Z,984.0
2018-03-04T08:55:47.587Z,984.1
2018-03-04T08:56:48.980Z,984.0
2018-03-04T08:57:50.371Z,984.1
2018-03-04T08:58:51.777Z,984.1
2018-03-04T08:59:53.164Z,984.1
2018-03-04T09:00:54.620Z,984.1
2018-03-04T09:01:56.017Z,984.1
2018-03-04T09:02:57.413Z,984.1
2018-03-04T09:03:58.829Z,984.1
2018-03-04T09:05:00.335Z,984.1
2018-03-04T09:06:01.806Z,984.1
2018-03-04T09:07:03.204Z,984.1
2018-03-04T09:08:04.592Z,984.1
2018-03-04T09:09:05.986Z,984.1
2018-03-04T09:10:07.376Z,984.1
2018-03-04T09:11:08.788Z,984.0
2018-03-04T09:12:10.165Z,984.1
2018-03-04T09:13:11.553Z,984.1
2018-03-04T09:14:12.939Z,984.1
2018-03-04T09:15:14.339Z,984.1
2018-03-04T09:16:15.730Z,984.1
2018-03-04T09:17:17.122Z,984.0
2018-03-04T09:18:18.510Z,984.0
2018-03-04T09:19:19.903Z,984.0
2018-03-04T09:20:21.289Z,984.1
2018-03-04T09:21:22.676Z,984.1
2018-03-04T09:22:24.065Z,984.1
2018-03-04T09:23:25.740Z,984.1
2018-03-04T09:24:27.107Z,984.0
2018-03-04T09:25:28.501Z,984.0
2018-03-04T09:26:30.214Z,984.0
2018-03-04T09:27:31.603Z,984.0
2018-03-04T09:28:33.003Z,984.0
2018-03-04T09:29:34.396Z,984.0
2018-03-04T09:30:35.782Z,983.9
2018-03-04T09:31:37.171Z,983.9
2018-03-04T09:32:38.566Z,983.9
2018-03-04T09:33:39.989Z,983.9
2018-03-04T09:34:41.381Z,983.9
2018-03-04T09:35:42.781Z,983.9
2018-03-04T09:36:44.209Z,984.0
2018-03-04T09:37:45.600Z,984.0
2018-03-04T09:38:46.999Z,983.9
2018-03-04T09:39:48.494Z,984.0
2018-03-04T09:40:49.886Z,984.0
2018-03-04T09:41:51.285Z,984.0
2018-03-04T09:42:52.673Z,984.0
2018-03-04T09:43:54.065Z,983.9
2018-03-04T09:44:55.457Z,983.9
2018-03-04T09:45:56.849Z,983.9
2018-03-04T09:46:58.240Z,983.9
2018-03-04T09:47:59.634Z,984.0
2018-03-04T09:49:01.028Z,983.9
2018-03-04T09:50:02.431Z,983.9
2018-03-04T09:51:03.831Z,983.9
2018-03-04T09:52:05.236Z,983.9
2018-03-04T09:53:06.634Z,983.9
2018-03-04T09:54:08.035Z,983.9
2018-03-04T09:55:09.429Z,983.9
2018-03-04T09:56:10.870Z,983.9
2018-03-04T09:57:12.317Z,983.9
2018-03-04T09:58:13.718Z,983.9
2018-03-04T09:59:15.123Z,983.9
2018-03-04T10:00:16.526Z,984.0
2018-03-04T10:01:17.925Z,983.8
2018-03-04T10:02:19.318Z,983.8
2018-03-04T10:03:20.709Z,983.8
2018-03-04T10:04:22.108Z,983.8
2018-03-04T10:05:23.812Z,983.8
2018-03-04T10:06:25.494Z,983.8
2018-03-04T10:07:26.877Z,983.7
2018-03-04T10:08:28.276Z,983.8
2018-03-04T10:09:29.690Z,983.8
2018-03-04T10:10:31.085Z,983.8
2018-03-04T10:11:32.486Z,983.9
2018-03-04T10:12:33.887Z,983.9
2018-03-04T10:13:35.289Z,983.9
2018-03-04T10:14:36.690Z,983.8
2018-03-04T10:15:38.094Z,983.9
2018-03-04T10:16:39.494Z,983.9
2018-03-04T10:17:40.984Z,983.9
2018-03-04T10:18:42.303Z,983.9
2018-03-04T10:19:43.700Z,983.9
2018-03-04T10:20:45.113Z,983.8
2018-03-04T10:21:46.571Z,983.8
2018-03-04T10:22:48.333Z,983.8
2018-03-04T10:23:49.734Z,983.8
2018-03-04T10:24:51.130Z,983.8
2018-03-04T10:25:52.538Z,983.8
2018-03-04T10:26:53.938Z,983.8
2018-03-04T10:27:55.341Z,983.6
2018-03-04T10:28:56.748Z,983.7
2018-03-04T10:29:58.154Z,983.8
2018-03-04T10:30:59.570Z,983.7
2018-03-04T10:32:00.972Z,983.7
2018-03-04T10:33:02.592Z,983.5
2018-03-04T10:34:03.725Z,983.7
2018-03-04T10:35:05.162Z,983.7
2018-03-04T10:36:06.564Z,983.7
2018-03-04T10:37:07.974Z,983.8
2018-03-04T10:38:09.391Z,983.6
2018-03-04T10:39:10.794Z,983.6
2018-03-04T10:40:12.247Z,983.6
2018-03-04T10:41:13.647Z,983.6
2018-03-04T10:42:15.049Z,983.5
2018-03-04T10:43:16.793Z,983.6
2018-03-04T10:44:18.531Z,983.7
2018-03-04T10:45:19.967Z,983.5
2018-03-04T10:46:21.367Z,983.5
2018-03-04T10:47:22.845Z,983.5
2018-03-04T10:48:24.272Z,983.7
2018-03-04T10:49:25.675Z,983.6
2018-03-04T10:50:27.077Z,983.6
2018-03-04T10:51:28.495Z,983.6
2018-03-04T10:52:29.916Z,983.6
2018-03-04T10:53:31.313Z,983.6
2018-03-04T10:54:32.726Z,983.6
2018-03-04T10:55:34.157Z,983.6
2018-03-04T10:56:35.524Z,983.7
2018-03-04T10:57:37.334Z,983.7
2018-03-04T10:58:38.789Z,983.7
2018-03-04T10:59:40.142Z,983.7
2018-03-04T11:00:41.562Z,983.6
2018-03-04T11:01:42.962Z,983.7
2018-03-04T11:02:44.377Z,983.6
2018-03-04T11:03:45.780Z,983.6
2018-03-04T11:04:47.187Z,983.6
2018-03-04T11:05:48.593Z,983.6
2018-03-04T11:06:50.009Z,983.6
2018-03-04T11:07:51.416Z,983.6
2018-03-04T11:08:52.824Z,983.6
2018-03-04T11:09:54.286Z,983.7
2018-03-04T11:10:55.727Z,983.7
2018-03-04T11:11:57.301Z,983.6
2018-03-04T11:12:58.716Z,983.7
2018-03-04T11:14:00.112Z,983.6
2018-03-04T11:15:01.516Z,983.6
2018-03-04T11:16:02.917Z,983.6
2018-03-04T11:17:04.319Z,983.6
2018-03-04T11:18:05.718Z,983.5
2018-03-04T11:19:07.122Z,983.5
2018-03-04T11:20:08.528Z,983.4
2018-03-04T11:21:09.929Z,983.4
2018-03-04T11:22:11.330Z,983.4
2018-03-04T11:23:12.733Z,983.4
2018-03-04T11:24:14.169Z,983.3
2018-03-04T11:25:15.617Z,983.3
2018-03-04T11:26:17.749Z,983.3
2018-03-04T11:27:19.152Z,983.3
2018-03-04T11:28:20.547Z,983.3
2018-03-04T11:29:22.014Z,983.3
2018-03-04T11:30:23.528Z,983.3
2018-03-04T11:31:24.947Z,983.3
2018-03-04T11:32:26.353Z,983.2
2018-03-04T11:33:27.752Z,983.2
2018-03-04T11:34:29.158Z,983.2
2018-03-04T11:35:30.561Z,983.2
2018-03-04T11:36:31.956Z,983.2
2018-03-04T11:37:33.411Z,983.1
2018-03-04T11:38:34.823Z,983.1
2018-03-04T11:39:36.223Z,983.1
2018-03-04T11:40:37.631Z,983.1
2018-03-04T11:41:39.497Z,983.1
2018-03-04T11:42:40.929Z,983.1
2018-03-04T11:43:42.318Z,983.0
2018-03-04T11:44:43.719Z,983.1
2018-03-04T11:45:45.120Z,983.0
2018-03-04T11:46:46.521Z,983.0
2018-03-04T11:47:47.920Z,983.0
2018-03-04T11:48:49.337Z,983.0
2018-03-04T11:49:50.738Z,983.0
2018-03-04T11:50:52.138Z,983.0
2018-03-04T11:51:53.537Z,983.0
2018-03-04T11:52:54.935Z,982.9
2018-03-04T11:53:57.185Z,982.9
2018-03-04T11:54:58.698Z,982.9
2018-03-04T11:56:00.223Z,982.9
2018-03-04T11:57:01.618Z,982.9
2018-03-04T11:58:03.016Z,982.9
2018-03-04T11:59:04.433Z,982.8
2018-03-04T12:00:05.834Z,982.9
2018-03-04T12:01:07.230Z,982.8
2018-03-04T12:02:08.637Z,982.9
2018-03-04T12:03:10.034Z,982.8
2018-03-04T12:04:11.446Z,982.8
2018-03-04T12:05:12.845Z,982.8
2018-03-04T12:06:14.244Z,982.8
2018-03-04T12:07:15.645Z,982.8
2018-03-04T12:08:17.046Z,982.8
2018-03-04T12:09:18.517Z,982.8
2018-03-04T12:10:20.016Z,982.7
2018-03-04T12:11:21.417Z,982.7
2018-03-04T12:12:22.817Z,982.7
2018-03-04T12:13:24.211Z,982.8
2018-03-04T12:14:25.611Z,982.7
2018-03-04T12:15:27.030Z,982.6
2018-03-04T12:16:28.455Z,982.6
2018-03-04T12:17:29.864Z,982.7
2018-03-04T12:18:31.262Z,982.7
2018-03-04T12:19:32.661Z,982.6
2018-03-04T12:20:34.061Z,982.6
2018-03-04T12:21:35.460Z,982.6
2018-03-04T12:22:36.859Z,982.6
2018-03-04T12:23:38.261Z,982.5
2018-03-04T12:24:39.669Z,982.6
2018-03-04T12:25:41.063Z,982.5
2018-03-04T12:26:42.674Z,982.5
2018-03-04T12:27:44.173Z,982.5
2018-03-04T12:28:45.568Z,982.5
2018-03-04T12:29:46.972Z,982.5
2018-03-04T12:30:48.504Z,982.5
2018-03-04T12:31:49.955Z,982.4
2018-03-04T12:32:51.353Z,982.5
2018-03-04T12:33:52.846Z,982.4
2018-03-04T12:34:54.242Z,982.4
2018-03-04T12:35:57.094Z,982.4
2018-03-04T12:36:58.457Z,982.4
2018-03-04T12:37:59.880Z,982.4
2018-03-04T12:39:01.376Z,982.4
2018-03-04T12:40:02.829Z,982.4
2018-03-04T12:41:04.280Z,982.4
2018-03-04T12:42:05.897Z,982.4
2018-03-04T12:43:07.421Z,982.4
2018-03-04T12:44:08.821Z,982.4
2018-03-04T12:45:10.219Z,982.3
2018-03-04T12:46:11.641Z,982.3
2018-03-04T12:47:13.058Z,982.2
2018-03-04T12:48:14.467Z,982.2
2018-03-04T12:49:15.862Z,982.2
2018-03-04T12:50:17.263Z,982.2
2018-03-04T12:51:18.665Z,982.2
2018-03-04T12:52:20.061Z,982.2
2018-03-04T12:53:21.462Z,982.2
2018-03-04T12:54:22.880Z,982.1
2018-03-04T12:55:24.275Z,982.2
2018-03-04T12:56:25.674Z,982.1
2018-03-04T12:57:27.083Z,982.1
2018-03-04T12:58:28.470Z,982.1
2018-03-04T12:59:29.943Z,982.1
2018-03-04T13:00:31.386Z,982.2
2018-03-04T13:01:33.026Z,982.1
2018-03-04T13:02:34.468Z,982.1
2018-03-04T13:03:35.862Z,982.1
2018-03-04T13:04:37.257Z,982.1
2018-03-04T13:05:38.657Z,982.1
2018-03-04T13:06:40.063Z,982.1
2018-03-04T13:07:41.463Z,982.1
2018-03-04T13:08:43.813Z,982.0
2018-03-04T13:09:45.216Z,982.0
2018-03-04T13:10:46.612Z,982.0